createdAt,value
2018-08-03T09:14:12.407Z,8.30
2018-08-03T09:15:17.934Z,6.40
2018-08-03T09:16:23.475Z,5.20
2018-08-03T09:17:29.038Z,7.30
2018-08-03T09:18:34.611Z,4.30
2018-08-03T09:19:40.106Z,7.00
2018-08-03T09:20:45.652Z,7.50
2018-08-03T09:21:51.194Z,4.40
2018-08-03T09:22:56.737Z,5.60
2018-08-03T09:24:02.283Z,4.70
2018-08-03T09:25:07.835Z,10.20
2018-08-03T09:26:13.377Z,5.90
2018-08-03T09:27:18.923Z,3.10
2018-08-03T09:28:24.525Z,4.80
2018-08-03T09:29:30.021Z,4.80
2018-08-03T09:30:35.564Z,4.00
2018-08-03T09:31:41.105Z,3.60
2018-08-03T09:32:46.654Z,6.90
2018-08-03T09:33:52.201Z,4.60
2018-08-03T09:34:57.783Z,5.60
2018-08-03T09:36:03.298Z,4.80
2018-08-03T09:37:08.848Z,2.50
2018-08-03T09:38:14.390Z,4.80
2018-08-03T09:39:19.935Z,5.60
2018-08-03T09:40:25.488Z,8.30
2018-08-03T09:41:31.034Z,4.10
2018-08-03T09:42:36.575Z,3.80
2018-08-03T09:43:42.122Z,3.50
2018-08-03T09:44:47.668Z,5.00
2018-08-03T09:45:53.223Z,4.00
2018-08-03T09:46:58.764Z,6.80
2018-08-03T09:48:04.318Z,3.00
2018-08-03T09:49:09.905Z,2.80
2018-08-03T09:50:15.423Z,5.10
2018-08-03T09:51:20.966Z,7.80
2018-08-03T09:52:26.520Z,5.40
2018-08-03T09:53:32.062Z,4.70
2018-08-03T09:54:37.610Z,3.30
2018-08-03T09:55:43.166Z,5.60
2018-08-03T09:56:48.709Z,4.90
2018-08-03T09:57:54.254Z,3.90
2018-08-03T09:58:59.804Z,3.50
2018-08-03T10:00:05.352Z,3.50
2018-08-03T10:01:10.898Z,4.40
2018-08-03T10:02:16.455Z,3.00
2018-08-03T10:03:21.998Z,4.70
2018-08-03T10:04:27.556Z,3.80
2018-08-03T10:05:33.095Z,2.50
2018-08-03T10:06:38.645Z,8.60
2018-08-03T10:07:44.199Z,3.80
2018-08-03T10:08:49.748Z,3.90
2018-08-03T10:09:55.298Z,3.80
2018-08-03T10:11:00.843Z,3.50
2018-08-03T10:12:06.390Z,4.60
2018-08-03T10:13:11.949Z,2.20
2018-08-03T10:14:17.495Z,4.60
2018-08-03T10:15:23.082Z,3.70
2018-08-03T10:16:28.604Z,2.60
2018-08-03T10:17:34.139Z,6.80
2018-08-03T10:18:39.694Z,5.10
2018-08-03T10:19:45.250Z,4.20
2018-08-03T10:20:50.798Z,2.20
2018-08-03T10:21:56.343Z,5.70
2018-08-03T10:23:01.899Z,4.30
2018-08-03T10:24:07.444Z,3.30
2018-08-03T10:25:12.985Z,4.50
2018-08-03T10:26:18.536Z,3.90
2018-08-03T10:27:24.089Z,5.80
2018-08-03T10:28:29.634Z,5.50
2018-08-03T10:29:35.250Z,6.50
2018-08-03T10:30:40.733Z,4.00
2018-08-03T10:31:46.292Z,6.50
2018-08-03T10:32:51.836Z,2.90
2018-08-03T10:33:57.387Z,3.90
2018-08-03T10:35:02.960Z,4.40
2018-08-03T10:36:08.487Z,3.10
2018-08-03T10:37:14.176Z,3.00
2018-08-03T10:38:19.590Z,2.40
2018-08-03T10:39:25.454Z,2.80
2018-08-03T10:40:30.687Z,2.70
2018-08-03T10:43:07.891Z,2.60
2018-08-03T10:44:13.393Z,3.10
2018-08-03T10:46:12.392Z,7.60
2018-08-03T10:47:17.378Z,8.60
2018-08-03T10:49:15.830Z,3.00
2018-08-03T10:50:21.374Z,5.20
2018-08-03T10:52:19.854Z,2.90
2018-08-03T10:53:25.342Z,3.50
2018-08-03T10:54:30.894Z,5.70
2018-08-03T10:55:36.448Z,4.10
2018-08-03T10:56:41.986Z,2.50
2018-08-03T10:57:47.565Z,4.30
2018-08-03T10:58:53.101Z,2.50
2018-08-03T10:59:58.638Z,4.30
2018-08-03T11:01:04.367Z,2.60
2018-08-03T11:02:09.831Z,2.10
2018-08-03T11:03:15.292Z,2.80
2018-08-03T11:04:20.842Z,3.20
2018-08-03T11:05:26.387Z,5.10
2018-08-03T11:06:31.934Z,6.10
2018-08-03T11:07:37.485Z,5.90
2018-08-03T11:08:43.039Z,4.90
2018-08-03T11:09:48.589Z,3.60
2018-08-03T11:10:54.132Z,3.60
2018-08-03T11:11:59.689Z,3.60
2018-08-03T11:13:05.240Z,1.90
2018-08-03T11:14:10.788Z,6.00
2018-08-03T11:15:16.345Z,2.70
2018-08-03T11:16:21.886Z,3.90
2018-08-03T11:17:27.439Z,4.10
2018-08-03T11:18:32.988Z,2.40
2018-08-03T11:19:38.541Z,2.20
2018-08-03T11:20:44.091Z,3.40
2018-08-03T11:21:49.640Z,3.40
2018-08-03T11:22:55.187Z,5.80
2018-08-03T11:24:00.768Z,2.40
2018-08-03T11:25:06.290Z,2.60
2018-08-03T11:26:11.836Z,2.20
2018-08-03T11:27:17.484Z,3.00
2018-08-03T11:28:22.956Z,3.30
2018-08-03T11:29:28.505Z,2.60
2018-08-03T11:30:34.039Z,3.70
2018-08-03T11:31:39.591Z,2.90
2018-08-03T11:32:45.137Z,2.40
2018-08-03T11:33:50.692Z,2.80
2018-08-03T11:34:56.236Z,7.10
2018-08-03T11:36:01.802Z,2.00
2018-08-03T11:37:07.344Z,4.30
2018-08-03T11:38:12.891Z,9.10
2018-08-03T11:39:18.439Z,7.40
2018-08-03T11:40:23.994Z,3.70
2018-08-03T11:41:29.542Z,4.60
2018-08-03T11:42:35.094Z,3.70
2018-08-03T11:43:40.641Z,5.10
2018-08-03T11:44:46.201Z,4.00
2018-08-03T11:45:51.747Z,2.90
2018-08-03T11:46:57.289Z,5.00
2018-08-03T11:48:02.847Z,4.60
2018-08-03T11:49:08.394Z,4.50
2018-08-03T11:50:13.940Z,3.20
2018-08-03T11:51:19.493Z,4.10
2018-08-03T11:52:25.041Z,2.10
2018-08-03T11:53:30.598Z,2.60
2018-08-03T11:54:36.151Z,4.50
2018-08-03T11:55:41.701Z,4.10
2018-08-03T11:56:47.249Z,1.70
2018-08-03T11:57:52.796Z,2.90
2018-08-03T11:58:58.348Z,2.70
2018-08-03T12:00:03.904Z,3.10
2018-08-03T12:01:09.449Z,5.20
2018-08-03T12:02:15.000Z,12.40
2018-08-03T12:03:20.546Z,4.90
2018-08-03T12:04:26.097Z,4.00
2018-08-03T12:05:31.648Z,3.60
2018-08-03T12:06:37.285Z,3.20
2018-08-03T12:07:42.751Z,2.70
2018-08-03T12:08:48.303Z,3.70
2018-08-03T12:09:53.850Z,2.40
2018-08-03T12:10:59.409Z,3.90
2018-08-03T12:12:04.952Z,3.40
2018-08-03T12:13:10.507Z,4.20
2018-08-03T12:14:16.056Z,4.90
2018-08-03T12:15:21.600Z,3.20
2018-08-03T12:16:27.156Z,11.30
2018-08-03T12:17:32.814Z,5.10
2018-08-03T12:18:38.277Z,3.40
2018-08-03T12:19:43.808Z,3.20
2018-08-03T12:20:49.355Z,3.10
2018-08-03T12:21:54.903Z,2.60
2018-08-03T12:23:00.455Z,7.10
2018-08-03T12:24:06.011Z,2.80
2018-08-03T12:25:11.563Z,9.50
2018-08-03T12:26:17.107Z,6.80
2018-08-03T12:27:22.661Z,3.90
2018-08-03T12:28:28.207Z,3.60
2018-08-03T12:29:33.763Z,4.80
2018-08-03T12:30:39.314Z,3.30
2018-08-03T12:31:44.867Z,6.80
2018-08-03T12:32:50.418Z,7.30
2018-08-03T12:33:55.965Z,3.30
2018-08-03T12:35:01.511Z,3.10
2018-08-03T12:36:07.066Z,7.00
2018-08-03T12:37:12.642Z,4.30
2018-08-03T12:38:18.175Z,4.50
2018-08-03T12:39:23.713Z,3.20
2018-08-03T12:40:29.266Z,2.40
2018-08-03T12:41:34.817Z,6.50
2018-08-03T12:42:40.368Z,7.90
2018-08-03T12:43:45.913Z,5.00
2018-08-03T12:44:51.463Z,3.10
2018-08-03T12:45:57.061Z,3.60
2018-08-03T12:47:02.572Z,2.80
2018-08-03T12:48:08.120Z,13.10
2018-08-03T12:49:13.664Z,3.30
2018-08-03T12:50:19.223Z,3.80
2018-08-03T12:51:24.763Z,3.20
2018-08-03T12:52:30.334Z,2.80
2018-08-03T12:53:35.872Z,2.30
2018-08-03T12:54:41.421Z,2.40
2018-08-03T12:55:46.963Z,3.60
2018-08-03T12:56:52.519Z,3.90
2018-08-03T12:57:58.065Z,3.50
2018-08-03T12:59:03.622Z,3.00
2018-08-03T13:00:09.172Z,4.20
2018-08-03T13:01:14.794Z,2.90
2018-08-03T13:02:20.277Z,2.20
2018-08-03T13:03:25.818Z,4.20
2018-08-03T13:04:31.373Z,2.80
2018-08-03T13:05:36.918Z,2.30
2018-08-03T13:06:42.462Z,2.80
2018-08-03T13:07:48.153Z,5.80
2018-08-03T13:08:53.577Z,6.30
2018-08-03T13:09:59.124Z,5.30
2018-08-03T13:11:04.676Z,3.80
2018-08-03T13:12:10.224Z,5.40
2018-08-03T13:13:15.794Z,9.70
2018-08-03T13:14:21.327Z,2.10
2018-08-03T13:16:58.494Z,2.20
2018-08-03T13:18:04.027Z,2.10
2018-08-03T13:20:02.481Z,8.40
2018-08-03T13:21:08.022Z,5.00
2018-08-03T13:22:13.562Z,3.50
2018-08-03T13:23:19.117Z,3.80
2018-08-03T13:24:24.659Z,2.10
2018-08-03T13:25:30.209Z,5.50
2018-08-03T13:26:35.761Z,3.50
2018-08-03T13:27:41.300Z,2.50
2018-08-03T13:28:46.852Z,8.80
2018-08-03T13:29:52.399Z,4.60
2018-08-03T13:30:57.956Z,2.10
2018-08-03T13:32:03.506Z,3.30
2018-08-03T13:33:09.076Z,3.20
2018-08-03T13:34:14.603Z,5.40
2018-08-03T13:35:20.156Z,3.90
2018-08-03T13:36:25.709Z,5.10
2018-08-03T13:37:31.250Z,3.60
2018-08-03T13:38:36.799Z,5.00
2018-08-03T13:39:42.354Z,2.80
2018-08-03T13:40:47.911Z,6.60
2018-08-03T13:41:53.455Z,2.30
2018-08-03T13:42:59.000Z,3.90
2018-08-03T13:44:04.553Z,5.80
2018-08-03T13:45:10.101Z,2.80
2018-08-03T13:46:15.649Z,3.00
2018-08-03T13:47:21.204Z,2.60
2018-08-03T13:48:26.767Z,3.40
2018-08-03T13:49:32.300Z,7.20
2018-08-03T13:50:37.853Z,4.10
2018-08-03T13:51:43.405Z,4.40
2018-08-03T13:52:48.956Z,3.80
2018-08-03T13:53:54.500Z,2.40
2018-08-03T13:55:00.055Z,1.90
2018-08-03T13:56:05.606Z,7.20
2018-08-03T13:57:11.166Z,3.00
2018-08-03T13:58:16.700Z,3.70
2018-08-03T13:59:22.258Z,2.10
2018-08-03T14:00:27.801Z,4.40
2018-08-03T14:01:33.353Z,2.40
2018-08-03T14:02:38.910Z,2.30
2018-08-03T14:03:44.455Z,6.20
2018-08-03T14:04:50.004Z,3.00
2018-08-03T14:05:55.563Z,3.00
2018-08-03T14:07:01.111Z,5.00
2018-08-03T14:08:06.649Z,4.10
2018-08-03T14:09:12.202Z,3.30
2018-08-03T14:10:17.758Z,3.70
2018-08-03T14:11:23.305Z,2.60
2018-08-03T14:12:28.854Z,4.10
2018-08-03T14:13:34.405Z,2.20
2018-08-03T14:14:39.995Z,3.10
2018-08-03T14:15:45.503Z,4.00
2018-08-03T14:16:51.056Z,3.20
2018-08-03T14:17:56.603Z,6.20
2018-08-03T14:19:02.156Z,2.80
2018-08-03T14:20:07.705Z,3.20
2018-08-03T14:21:13.256Z,2.90
2018-08-03T14:22:18.807Z,2.40
2018-08-03T14:23:24.357Z,3.40
2018-08-03T14:24:29.903Z,5.90
2018-08-03T14:25:35.521Z,4.20
2018-08-03T14:26:41.020Z,8.10
2018-08-03T14:27:46.555Z,2.70
2018-08-03T14:28:52.117Z,2.60
2018-08-03T14:29:57.707Z,4.90
2018-08-03T14:31:03.201Z,3.10
2018-08-03T14:32:08.758Z,2.80
2018-08-03T14:33:14.305Z,3.80
2018-08-03T14:34:19.853Z,2.30
2018-08-03T14:35:25.405Z,2.10
2018-08-03T14:36:30.952Z,2.90
2018-08-03T14:37:36.508Z,3.60
2018-08-03T14:38:42.064Z,2.40
2018-08-03T14:39:47.605Z,2.90
2018-08-03T14:40:53.160Z,3.10
2018-08-03T14:41:58.717Z,4.90
2018-08-03T14:43:04.253Z,3.90
2018-08-03T14:44:09.803Z,2.40
2018-08-03T14:45:15.355Z,3.00
2018-08-03T14:46:20.905Z,3.10
2018-08-03T14:47:26.459Z,3.60
2018-08-03T14:48:32.010Z,2.40
2018-08-03T14:49:37.561Z,4.90
2018-08-03T14:50:43.158Z,3.30
2018-08-03T14:51:48.656Z,6.60
2018-08-03T14:52:54.205Z,3.40
2018-08-03T14:53:59.755Z,3.90
2018-08-03T14:55:05.314Z,3.60
2018-08-03T14:56:10.866Z,2.70
2018-08-03T14:57:16.405Z,2.20
2018-08-03T14:58:21.955Z,3.50
2018-08-03T14:59:27.504Z,5.50
2018-08-03T15:00:33.057Z,3.70
2018-08-03T15:01:38.610Z,5.10
2018-08-03T15:02:44.164Z,6.90
2018-08-03T15:03:49.706Z,4.80
2018-08-03T15:04:55.259Z,2.40
2018-08-03T15:06:00.812Z,5.40
2018-08-03T15:07:06.356Z,3.70
2018-08-03T15:08:11.912Z,2.80
2018-08-03T15:09:17.457Z,4.80
2018-08-03T15:10:23.016Z,2.40
2018-08-03T15:11:28.554Z,2.60
2018-08-03T15:12:34.106Z,3.70
2018-08-03T15:13:39.662Z,4.30
2018-08-03T15:14:45.214Z,2.60
2018-08-03T15:15:50.760Z,5.00
2018-08-03T15:16:56.315Z,4.60
2018-08-03T15:18:01.865Z,4.20
2018-08-03T15:19:07.405Z,3.20
2018-08-03T15:20:12.961Z,6.20
2018-08-03T15:21:18.515Z,3.80
2018-08-03T15:22:24.063Z,6.30
2018-08-03T15:23:29.614Z,2.90
2018-08-03T15:24:35.162Z,2.70
2018-08-03T15:25:40.713Z,2.90
2018-08-03T15:26:46.259Z,3.10
2018-08-03T15:27:51.808Z,6.60
2018-08-03T15:28:57.412Z,2.80
2018-08-03T15:30:02.909Z,3.40
2018-08-03T15:32:40.073Z,3.50
2018-08-03T15:33:45.613Z,3.50
2018-08-03T15:35:44.071Z,4.90
2018-08-03T15:36:49.653Z,7.90
2018-08-03T15:38:48.530Z,4.20
2018-08-03T15:39:54.068Z,7.70
2018-08-03T15:40:59.648Z,7.50
2018-08-03T15:42:05.167Z,7.10
2018-08-03T15:43:10.710Z,7.00
2018-08-03T15:44:16.260Z,56.80
2018-08-03T15:45:21.815Z,65.90
2018-08-03T15:46:27.361Z,22.20
2018-08-03T15:47:32.908Z,21.40
2018-08-03T15:48:38.462Z,14.80
2018-08-03T15:49:44.012Z,8.90
2018-08-03T15:50:49.551Z,3.00
2018-08-03T15:51:55.098Z,9.70
2018-08-03T15:53:00.654Z,5.90
2018-08-03T15:54:06.199Z,4.40
2018-08-03T15:55:11.747Z,3.40
2018-08-03T15:56:17.293Z,3.90
2018-08-03T15:57:22.843Z,6.80
2018-08-03T15:58:28.396Z,7.30
2018-08-03T15:59:33.943Z,7.40
2018-08-03T16:00:39.487Z,6.60
2018-08-03T16:01:45.040Z,6.30
2018-08-03T16:02:50.591Z,5.60
2018-08-03T16:03:56.140Z,2.90
2018-08-03T16:05:01.689Z,5.60
2018-08-03T16:06:07.239Z,9.30
2018-08-03T16:07:12.781Z,5.00
2018-08-03T16:08:18.332Z,6.70
2018-08-03T16:09:23.879Z,9.20
2018-08-03T16:10:29.435Z,4.50
2018-08-03T16:11:34.977Z,8.50
2018-08-03T16:12:40.534Z,2.60
2018-08-03T16:13:46.076Z,3.80
2018-08-03T16:14:51.629Z,6.10
2018-08-03T16:15:57.186Z,4.10
2018-08-03T16:17:02.722Z,7.70
2018-08-03T16:18:08.278Z,4.30
2018-08-03T16:19:13.826Z,2.70
2018-08-03T16:20:19.376Z,6.20
2018-08-03T16:21:24.920Z,3.40
2018-08-03T16:22:30.470Z,2.60
2018-08-03T16:23:36.075Z,4.20
2018-08-03T16:24:41.574Z,5.50
2018-08-03T16:25:47.121Z,4.00
2018-08-03T16:26:52.878Z,3.10
2018-08-03T16:27:58.220Z,5.50
2018-08-03T16:29:03.772Z,6.80
2018-08-03T16:30:09.318Z,7.50
2018-08-03T16:31:14.869Z,5.00
2018-08-03T16:32:20.414Z,3.50
2018-08-03T16:33:25.964Z,5.20
2018-08-03T16:34:31.520Z,4.90
2018-08-03T16:35:37.335Z,6.20
2018-08-03T16:36:42.994Z,4.30
2018-08-03T16:37:48.159Z,17.10
2018-08-03T16:38:53.759Z,5.90
2018-08-03T16:41:30.881Z,3.60
2018-08-03T16:42:36.412Z,4.70
2018-08-03T16:44:34.864Z,3.60
2018-08-03T16:45:40.441Z,5.90
2018-08-03T16:46:45.939Z,4.50
2018-08-03T16:47:51.492Z,5.00
2018-08-03T16:48:57.035Z,4.30
2018-08-03T16:50:02.595Z,4.10
2018-08-03T16:51:08.135Z,5.20
2018-08-03T16:52:13.686Z,4.90
2018-08-03T16:53:19.240Z,3.80
2018-08-03T16:54:24.780Z,4.70
2018-08-03T16:55:30.339Z,4.50
2018-08-03T16:56:35.876Z,3.40
2018-08-03T16:57:41.426Z,5.50
2018-08-03T16:58:46.971Z,3.40
2018-08-03T16:59:52.523Z,4.60
2018-08-03T17:00:58.075Z,3.40
2018-08-03T17:02:03.621Z,9.80
2018-08-03T17:03:09.167Z,3.50
2018-08-03T17:04:14.725Z,3.80
2018-08-03T17:05:20.267Z,3.80
2018-08-03T17:06:25.837Z,4.20
2018-08-03T17:07:31.367Z,5.30
2018-08-03T17:08:36.921Z,4.40
2018-08-03T17:09:42.463Z,5.70
2018-08-03T17:10:48.017Z,3.30
2018-08-03T17:11:53.561Z,4.10
2018-08-03T17:12:59.115Z,5.50
2018-08-03T17:14:04.657Z,8.50
2018-08-03T17:15:10.216Z,5.20
2018-08-03T17:16:15.757Z,3.50
2018-08-03T17:17:21.315Z,5.80
2018-08-03T17:18:26.866Z,6.10
2018-08-03T17:19:32.409Z,4.10
2018-08-03T17:20:37.957Z,4.40
2018-08-03T17:21:43.507Z,6.10
2018-08-03T17:22:49.055Z,6.10
2018-08-03T17:23:54.608Z,4.90
2018-08-03T17:25:00.147Z,7.50
2018-08-03T17:26:05.703Z,4.30
2018-08-03T17:27:11.251Z,4.90
2018-08-03T17:28:16.801Z,3.20
2018-08-03T17:29:22.345Z,5.70
2018-08-03T17:30:27.896Z,4.40
2018-08-03T17:31:33.451Z,4.30
2018-08-03T17:32:38.994Z,7.70
2018-08-03T17:33:44.548Z,5.20
2018-08-03T17:34:50.090Z,7.20
2018-08-03T17:35:55.664Z,3.60
2018-08-03T17:37:01.274Z,5.40
2018-08-03T17:38:06.739Z,3.40
2018-08-03T17:39:12.281Z,8.00
2018-08-03T17:40:17.840Z,4.80
2018-08-03T17:41:23.647Z,5.40
2018-08-03T17:42:28.936Z,5.50
2018-08-03T17:43:34.476Z,4.10
2018-08-03T17:44:40.026Z,4.10
2018-08-03T17:45:45.579Z,3.00
2018-08-03T17:46:51.170Z,5.40
2018-08-03T17:47:56.675Z,4.90
2018-08-03T17:49:02.236Z,5.40
2018-08-03T17:50:07.764Z,5.20
2018-08-03T17:51:13.321Z,6.50
2018-08-03T17:52:18.867Z,3.80
2018-08-03T17:53:24.411Z,4.30
2018-08-03T17:54:29.963Z,6.00
2018-08-03T17:55:35.509Z,6.70
2018-08-03T17:56:41.056Z,9.00
2018-08-03T17:57:46.608Z,4.10
2018-08-03T17:58:52.158Z,7.20
2018-08-03T17:59:57.867Z,8.40
2018-08-03T18:01:03.259Z,4.60
2018-08-03T18:02:08.805Z,10.90
2018-08-03T18:03:14.350Z,3.70
2018-08-03T18:04:19.893Z,10.00
2018-08-03T18:05:25.445Z,6.10
2018-08-03T18:06:30.995Z,4.70
2018-08-03T18:07:36.538Z,8.10
2018-08-03T18:08:42.097Z,7.50
2018-08-03T18:09:47.639Z,7.90
2018-08-03T18:10:53.187Z,7.70
2018-08-03T18:11:58.732Z,6.10
2018-08-03T18:13:04.299Z,5.50
2018-08-03T18:14:09.830Z,5.40
2018-08-03T18:15:15.387Z,6.40
2018-08-03T18:16:20.997Z,3.80
2018-08-03T18:17:26.474Z,4.60
2018-08-03T18:18:32.027Z,5.30
2018-08-03T18:19:37.572Z,7.10
2018-08-03T18:20:43.122Z,5.30
2018-08-03T18:21:48.703Z,5.20
2018-08-03T18:22:54.250Z,4.10
2018-08-03T18:23:59.768Z,4.20
2018-08-03T18:25:05.315Z,4.20
2018-08-03T18:26:10.860Z,7.40
2018-08-03T18:27:16.403Z,4.90
2018-08-03T18:28:21.961Z,3.90
2018-08-03T18:29:27.508Z,6.30
2018-08-03T18:30:33.050Z,13.10
2018-08-03T18:31:38.598Z,4.60
2018-08-03T18:32:44.172Z,4.50
2018-08-03T18:33:49.695Z,6.50
2018-08-03T18:34:55.245Z,5.20
2018-08-03T18:36:00.872Z,8.50
2018-08-03T18:37:06.341Z,5.90
2018-08-03T18:38:12.098Z,10.40
2018-08-03T18:39:17.446Z,3.90
2018-08-03T18:40:23.250Z,8.20
2018-08-03T18:41:28.530Z,13.80
2018-08-03T18:42:34.118Z,4.30
2018-08-03T18:43:39.678Z,3.90
2018-08-03T18:44:45.177Z,5.50
2018-08-03T18:45:50.725Z,7.60
2018-08-03T18:46:56.270Z,4.30
2018-08-03T18:48:01.823Z,9.80
2018-08-03T18:49:07.372Z,7.00
2018-08-03T18:50:12.913Z,6.70
2018-08-03T18:51:18.466Z,6.30
2018-08-03T18:52:24.010Z,7.60
2018-08-03T18:53:29.556Z,5.60
2018-08-03T18:54:35.101Z,5.80
2018-08-03T18:55:40.653Z,4.80
2018-08-03T18:56:46.203Z,6.00
2018-08-03T18:57:51.752Z,9.00
2018-08-03T18:58:57.296Z,5.60
2018-08-03T19:00:02.844Z,5.00
2018-08-03T19:01:08.480Z,7.60
2018-08-03T19:02:13.941Z,4.60
2018-08-03T19:03:19.484Z,5.20
2018-08-03T19:04:25.043Z,8.00
2018-08-03T19:05:30.582Z,9.10
2018-08-03T19:06:36.131Z,6.80
2018-08-03T19:07:41.675Z,9.00
2018-08-03T19:08:47.222Z,8.00
2018-08-03T19:09:52.792Z,9.40
2018-08-03T19:10:58.319Z,13.60
2018-08-03T19:12:03.875Z,6.80
2018-08-03T19:13:09.412Z,8.00
2018-08-03T19:14:14.962Z,7.80
2018-08-03T19:15:20.517Z,7.00
2018-08-03T19:16:26.058Z,6.40
2018-08-03T19:17:31.604Z,4.90
2018-08-03T19:18:37.151Z,11.70
2018-08-03T19:19:42.710Z,5.90
2018-08-03T19:20:48.251Z,5.90
2018-08-03T19:21:53.937Z,10.10
2018-08-03T19:22:59.351Z,6.70
2018-08-03T19:24:04.888Z,5.50
2018-08-03T19:25:10.449Z,6.80
2018-08-03T19:26:15.987Z,5.10
2018-08-03T19:27:21.527Z,6.80
2018-08-03T19:28:27.075Z,7.20
2018-08-03T19:29:32.710Z,8.50
2018-08-03T19:30:38.172Z,6.50
2018-08-03T19:31:43.723Z,5.30
2018-08-03T19:32:49.279Z,5.70
2018-08-03T19:33:54.833Z,5.30
2018-08-03T19:35:00.367Z,5.30
2018-08-03T19:36:08.465Z,5.20
2018-08-03T19:37:11.460Z,7.10
2018-08-03T19:38:17.001Z,9.20
2018-08-03T19:39:22.554Z,6.00
2018-08-03T19:40:28.104Z,4.50
2018-08-03T19:41:33.641Z,5.90
2018-08-03T19:42:39.194Z,7.10
2018-08-03T19:43:44.742Z,4.60
2018-08-03T19:44:50.290Z,5.20
2018-08-03T19:45:55.841Z,4.80
2018-08-03T19:47:01.440Z,4.90
2018-08-03T19:48:06.924Z,5.00
2018-08-03T19:49:12.480Z,6.40
2018-08-03T19:50:18.019Z,4.30
2018-08-03T19:51:23.573Z,7.90
2018-08-03T19:52:29.168Z,8.00
2018-08-03T19:53:34.663Z,4.50
2018-08-03T19:54:40.215Z,6.90
2018-08-03T19:55:45.761Z,7.70
2018-08-03T19:56:51.304Z,7.20
2018-08-03T19:57:56.850Z,14.90
2018-08-03T19:59:02.476Z,6.20
2018-08-03T20:00:07.940Z,5.90
2018-08-03T20:01:13.489Z,5.10
2018-08-03T20:02:19.042Z,6.80
2018-08-03T20:03:24.585Z,6.10
2018-08-03T20:04:30.133Z,4.60
2018-08-03T20:05:35.680Z,5.60
2018-08-03T20:06:41.257Z,6.70
2018-08-03T20:09:18.388Z,8.60
2018-08-03T20:10:23.922Z,4.70
2018-08-03T20:12:22.375Z,6.40
2018-08-03T20:13:27.940Z,6.20
2018-08-03T20:15:26.818Z,9.90
2018-08-03T20:16:32.357Z,9.80
2018-08-03T20:17:37.900Z,7.80
2018-08-03T20:18:43.453Z,5.00
2018-08-03T20:19:48.998Z,10.50
2018-08-03T20:20:54.536Z,6.20
2018-08-03T20:22:00.087Z,6.30
2018-08-03T20:23:05.630Z,8.30
2018-08-03T20:24:11.175Z,7.60
2018-08-03T20:25:16.725Z,9.90
2018-08-03T20:26:22.272Z,6.20
2018-08-03T20:27:27.818Z,7.50
2018-08-03T20:28:33.363Z,12.60
2018-08-03T20:29:38.902Z,7.30
2018-08-03T20:30:44.529Z,5.80
2018-08-03T20:31:49.990Z,8.50
2018-08-03T20:32:55.539Z,11.70
2018-08-03T20:34:01.082Z,6.40
2018-08-03T20:35:06.630Z,8.50
2018-08-03T20:36:12.172Z,8.20
2018-08-03T20:37:17.726Z,8.20
2018-08-03T20:38:23.262Z,6.60
2018-08-03T20:39:28.806Z,7.70
2018-08-03T20:40:34.352Z,7.80
2018-08-03T20:41:39.903Z,6.10
2018-08-03T20:42:45.451Z,8.40
2018-08-03T20:43:50.992Z,7.00
2018-08-03T20:44:56.539Z,7.80
2018-08-03T20:46:02.085Z,11.60
2018-08-03T20:47:07.625Z,5.90
2018-08-03T20:48:13.167Z,8.90
2018-08-03T20:49:18.711Z,5.80
2018-08-03T20:50:24.264Z,7.10
2018-08-03T20:51:29.806Z,9.90
2018-08-03T20:52:35.352Z,6.60
2018-08-03T20:53:40.900Z,5.60
2018-08-03T20:54:46.445Z,6.60
2018-08-03T20:55:51.988Z,8.80
2018-08-03T20:56:57.534Z,5.60
2018-08-03T20:58:03.078Z,8.40
2018-08-03T20:59:08.625Z,5.90
2018-08-03T21:00:14.178Z,6.80
2018-08-03T21:01:19.723Z,6.30
2018-08-03T21:02:25.264Z,6.90
2018-08-03T21:03:30.813Z,10.80
2018-08-03T21:04:36.422Z,10.50
2018-08-03T21:05:41.899Z,8.90
2018-08-03T21:06:47.447Z,12.20
2018-08-03T21:07:52.998Z,7.20
2018-08-03T21:08:58.536Z,7.30
2018-08-03T21:10:04.082Z,14.50
2018-08-03T21:11:09.639Z,7.80
2018-08-03T21:12:15.177Z,6.40
2018-08-03T21:13:20.720Z,6.70
2018-08-03T21:14:26.276Z,7.90
2018-08-03T21:15:31.816Z,7.10
2018-08-03T21:16:37.360Z,6.60
2018-08-03T21:17:42.902Z,8.20
2018-08-03T21:18:48.450Z,8.10
2018-08-03T21:19:53.999Z,6.40
2018-08-03T21:20:59.539Z,6.40
2018-08-03T21:22:05.087Z,6.60
2018-08-03T21:23:10.636Z,9.40
2018-08-03T21:24:16.188Z,11.40
2018-08-03T21:25:21.720Z,8.00
2018-08-03T21:26:27.275Z,6.80
2018-08-03T21:27:32.819Z,7.90
2018-08-03T21:28:38.362Z,9.60
2018-08-03T21:29:43.904Z,10.00
2018-08-03T21:30:49.452Z,9.40
2018-08-03T21:31:55.004Z,10.10
2018-08-03T21:33:00.540Z,14.50
2018-08-03T21:34:06.094Z,10.20
2018-08-03T21:35:11.638Z,7.60
2018-08-03T21:36:17.180Z,7.50
2018-08-03T21:37:22.730Z,6.10
2018-08-03T21:38:28.273Z,7.20
2018-08-03T21:39:33.813Z,9.20
2018-08-03T21:40:39.414Z,8.20
2018-08-03T21:41:44.911Z,8.20
2018-08-03T21:42:50.454Z,8.30
2018-08-03T21:43:56.055Z,7.50
2018-08-03T21:45:01.539Z,10.60
2018-08-03T21:46:07.083Z,7.20
2018-08-03T21:47:12.630Z,6.10
2018-08-03T21:48:18.177Z,10.50
2018-08-03T21:49:23.719Z,6.20
2018-08-03T21:50:29.265Z,8.80
2018-08-03T21:51:34.819Z,9.10
2018-08-03T21:52:40.365Z,8.70
2018-08-03T21:53:45.908Z,13.10
2018-08-03T21:54:51.451Z,6.50
2018-08-03T21:55:56.996Z,7.60
2018-08-03T21:57:02.535Z,11.40
2018-08-03T21:58:08.104Z,7.40
2018-08-03T21:59:13.631Z,11.70
2018-08-03T22:00:19.182Z,7.10
2018-08-03T22:01:24.721Z,6.00
2018-08-03T22:02:30.262Z,7.80
2018-08-03T22:03:35.807Z,11.40
2018-08-03T22:04:41.349Z,8.40
2018-08-03T22:05:46.896Z,6.90
2018-08-03T22:06:52.446Z,11.20
2018-08-03T22:07:57.992Z,8.00
2018-08-03T22:09:03.536Z,11.30
2018-08-03T22:10:09.080Z,14.20
2018-08-03T22:11:14.628Z,21.50
2018-08-03T22:12:20.166Z,15.10
2018-08-03T22:13:25.720Z,14.50
2018-08-03T22:14:31.256Z,18.80
2018-08-03T22:15:36.798Z,15.40
2018-08-03T22:16:42.345Z,18.60
2018-08-03T22:17:47.893Z,13.60
2018-08-03T22:18:53.461Z,13.10
2018-08-03T22:19:58.994Z,10.30
2018-08-03T22:21:04.527Z,12.70
2018-08-03T22:22:10.075Z,11.10
2018-08-03T22:23:15.619Z,10.80
2018-08-03T22:24:21.297Z,11.20
2018-08-03T22:25:26.709Z,15.40
2018-08-03T22:26:32.254Z,9.50
2018-08-03T22:27:37.797Z,10.90
2018-08-03T22:28:43.342Z,12.30
2018-08-03T22:29:48.887Z,9.80
2018-08-03T22:30:54.431Z,9.70
2018-08-03T22:31:59.972Z,11.50
2018-08-03T22:33:05.520Z,7.00
2018-08-03T22:34:11.065Z,9.10
2018-08-03T22:35:16.604Z,6.60
2018-08-03T22:36:22.153Z,11.20
2018-08-03T22:37:27.702Z,8.20
2018-08-03T22:38:33.288Z,8.80
2018-08-03T22:39:38.790Z,9.70
2018-08-03T22:40:44.335Z,6.70
2018-08-03T22:41:49.876Z,9.10
2018-08-03T22:42:55.458Z,7.60
2018-08-03T22:44:00.965Z,10.00
2018-08-03T22:45:06.513Z,9.70
2018-08-03T22:46:12.055Z,5.80
2018-08-03T22:47:17.604Z,8.20
2018-08-03T22:48:23.148Z,5.60
2018-08-03T22:49:28.688Z,6.90
2018-08-03T22:50:34.234Z,8.80
2018-08-03T22:51:39.783Z,9.70
2018-08-03T22:52:45.322Z,9.20
2018-08-03T22:53:50.863Z,9.00
2018-08-03T22:54:56.411Z,9.50
2018-08-03T22:56:01.953Z,9.30
2018-08-03T22:57:07.506Z,10.80
2018-08-03T22:58:13.046Z,8.10
2018-08-03T22:59:18.590Z,8.20
2018-08-03T23:00:24.135Z,7.60
2018-08-03T23:01:29.678Z,7.90
2018-08-03T23:02:35.223Z,6.50
2018-08-03T23:03:40.767Z,8.70
2018-08-03T23:04:46.305Z,8.00
2018-08-03T23:05:51.848Z,7.00
2018-08-03T23:06:57.402Z,9.30
2018-08-03T23:08:02.967Z,6.90
2018-08-03T23:09:08.488Z,6.90
2018-08-03T23:10:14.029Z,10.50
2018-08-03T23:11:19.573Z,7.70
2018-08-03T23:12:25.123Z,10.80
2018-08-03T23:13:30.665Z,10.00
2018-08-03T23:14:36.209Z,10.40
2018-08-03T23:15:41.751Z,7.30
2018-08-03T23:16:47.300Z,10.20
2018-08-03T23:17:52.840Z,7.30
2018-08-03T23:18:58.390Z,10.50
2018-08-03T23:20:03.935Z,11.10
2018-08-03T23:21:09.477Z,8.30
2018-08-03T23:22:15.019Z,6.90
2018-08-03T23:23:20.567Z,12.20
2018-08-03T23:24:26.115Z,9.00
2018-08-03T23:25:31.652Z,10.50
2018-08-03T23:26:37.193Z,12.60
2018-08-03T23:27:42.744Z,9.20
2018-08-03T23:28:48.281Z,12.10
2018-08-03T23:29:53.826Z,9.00
2018-08-03T23:30:59.372Z,9.70
2018-08-03T23:32:04.920Z,16.80
2018-08-03T23:33:10.464Z,9.50
2018-08-03T23:34:16.003Z,11.10
2018-08-03T23:35:21.557Z,12.80
2018-08-03T23:36:27.090Z,8.60
2018-08-03T23:37:32.636Z,9.30
2018-08-03T23:38:38.187Z,10.60
2018-08-03T23:39:43.728Z,13.80
2018-08-03T23:40:49.268Z,13.60
2018-08-03T23:41:54.814Z,13.80
2018-08-03T23:43:00.360Z,11.90
2018-08-03T23:44:05.908Z,9.70
2018-08-03T23:45:11.449Z,10.70
2018-08-03T23:46:16.992Z,13.80
2018-08-03T23:47:22.546Z,14.50
2018-08-03T23:48:28.078Z,18.10
2018-08-03T23:49:33.623Z,10.90
2018-08-03T23:50:39.171Z,10.50
2018-08-03T23:51:44.711Z,11.10
2018-08-03T23:52:50.258Z,11.70
2018-08-03T23:53:55.801Z,12.70
2018-08-03T23:55:01.342Z,8.90
2018-08-03T23:56:06.893Z,9.40
2018-08-03T23:57:12.431Z,12.90
2018-08-03T23:58:17.980Z,13.60